sensor_id;sensor_type;location;lat;lon;timestamp;P1;durP1;ratioP1;P2;durP2;ratioP2
43996;SDS011;34318;45.818;15.964;2022-12-29T00:01:41;39.97;;;36.42;;
43996;SDS011;34318;45.818;15.964;2022-12-29T00:04:09;39.65;;;36.17;;
43996;SDS011;34318;45.818;15.964;2022-12-29T00:06:41;39.35;;;35.55;;
43996;SDS011;34318;45.818;15.964;2022-12-29T00:09:08;37.88;;;34.40;;
43996;SDS011;34318;45.818;15.964;2022-12-29T00:11:35;38.40;;;34.67;;
43996;SDS011;34318;45.818;15.964;2022-12-29T00:14:02;37.60;;;34.33;;
43996;SDS011;34318;45.818;15.964;2022-12-29T00:16:51;38.03;;;34.28;;
43996;SDS011;34318;45.818;15.964;2022-12-29T00:19:18;37.40;;;33.88;;
43996;SDS011;34318;45.818;15.964;2022-12-29T00:22:04;38.47;;;34.65;;
43996;SDS011;34318;45.818;15.964;2022-12-29T00:24:50;35.55;;;32.20;;
43996;SDS011;34318;45.818;15.964;2022-12-29T00:27:36;37.35;;;33.75;;
43996;SDS011;34318;45.818;15.964;2022-12-29T00:30:30;34.85;;;31.65;;
43996;SDS011;34318;45.818;15.964;2022-12-29T00:33:16;35.53;;;32.22;;
43996;SDS011;34318;45.818;15.964;2022-12-29T00:36:07;35.10;;;31.60;;
43996;SDS011;34318;45.818;15.964;2022-12-29T00:38:35;34.70;;;31.42;;
43996;SDS011;34318;45.818;15.964;2022-12-29T00:41:22;34.30;;;31.13;;
43996;SDS011;34318;45.818;15.964;2022-12-29T00:44:09;35.15;;;31.98;;
43996;SDS011;34318;45.818;15.964;2022-12-29T00:46:37;34.45;;;31.27;;
43996;SDS011;34318;45.818;15.964;2022-12-29T00:49:05;33.90;;;30.80;;
43996;SDS011;34318;45.818;15.964;2022-12-29T00:51:51;34.97;;;31.70;;
43996;SDS011;34318;45.818;15.964;2022-12-29T00:54:19;32.13;;;29.33;;
43996;SDS011;34318;45.818;15.964;2022-12-29T00:56:47;33.22;;;30.02;;
43996;SDS011;34318;45.818;15.964;2022-12-29T00:59:14;33.38;;;30.23;;
43996;SDS011;34318;45.818;15.964;2022-12-29T01:01:43;33.35;;;30.20;;
43996;SDS011;34318;45.818;15.964;2022-12-29T01:04:11;31.92;;;29.10;;
43996;SDS011;34318;45.818;15.964;2022-12-29T01:06:39;31.70;;;28.85;;
43996;SDS011;34318;45.818;15.964;2022-12-29T01:09:06;30.25;;;27.55;;
43996;SDS011;34318;45.818;15.964;2022-12-29T01:14:20;28.90;;;26.13;;
43996;SDS011;34318;45.818;15.964;2022-12-29T01:16:47;31.77;;;28.80;;
43996;SDS011;34318;45.818;15.964;2022-12-29T01:19:15;30.75;;;27.95;;
43996;SDS011;34318;45.818;15.964;2022-12-29T01:21:43;30.30;;;27.42;;
43996;SDS011;34318;45.818;15.964;2022-12-29T01:24:10;27.75;;;25.35;;
43996;SDS011;34318;45.818;15.964;2022-12-29T01:26:38;30.20;;;27.30;;
43996;SDS011;34318;45.818;15.964;2022-12-29T01:29:05;30.02;;;27.25;;
43996;SDS011;34318;45.818;15.964;2022-12-29T01:31:32;27.77;;;25.15;;
43996;SDS011;34318;45.818;15.964;2022-12-29T01:33:59;28.88;;;26.27;;
43996;SDS011;34318;45.818;15.964;2022-12-29T01:36:27;27.55;;;25.13;;
43996;SDS011;34318;45.818;15.964;2022-12-29T01:38:54;26.80;;;24.50;;
43996;SDS011;34318;45.818;15.964;2022-12-29T01:41:21;27.25;;;23.88;;
43996;SDS011;34318;45.818;15.964;2022-12-29T01:43:50;25.70;;;23.40;;
43996;SDS011;34318;45.818;15.964;2022-12-29T01:46:35;26.67;;;24.17;;
43996;SDS011;34318;45.818;15.964;2022-12-29T01:49:10;25.33;;;23.05;;
43996;SDS011;34318;45.818;15.964;2022-12-29T01:51:50;26.52;;;24.02;;
43996;SDS011;34318;45.818;15.964;2022-12-29T01:56:51;26.00;;;23.70;;
43996;SDS011;34318;45.818;15.964;2022-12-29T01:59:21;25.00;;;22.80;;
43996;SDS011;34318;45.818;15.964;2022-12-29T02:01:49;24.60;;;22.50;;
43996;SDS011;34318;45.818;15.964;2022-12-29T02:04:17;24.33;;;22.05;;
43996;SDS011;34318;45.818;15.964;2022-12-29T02:06:55;26.13;;;23.38;;
43996;SDS011;34318;45.818;15.964;2022-12-29T02:09:23;26.05;;;22.88;;
43996;SDS011;34318;45.818;15.964;2022-12-29T02:11:51;23.75;;;21.55;;
43996;SDS011;34318;45.818;15.964;2022-12-29T02:14:18;23.75;;;21.73;;
43996;SDS011;34318;45.818;15.964;2022-12-29T02:17:37;23.92;;;21.75;;
43996;SDS011;34318;45.818;15.964;2022-12-29T02:32:41;21.05;;;19.05;;
43996;SDS011;34318;45.818;15.964;2022-12-29T02:35:29;22.75;;;20.65;;
43996;SDS011;34318;45.818;15.964;2022-12-29T02:40:34;20.70;;;18.90;;
43996;SDS011;34318;45.818;15.964;2022-12-29T02:43:19;21.60;;;19.60;;
43996;SDS011;34318;45.818;15.964;2022-12-29T02:45:56;20.08;;;18.27;;
43996;SDS011;34318;45.818;15.964;2022-12-29T02:53:25;19.30;;;17.42;;
43996;SDS011;34318;45.818;15.964;2022-12-29T02:56:16;20.58;;;18.88;;
43996;SDS011;34318;45.818;15.964;2022-12-29T02:58:44;25.02;;;19.42;;
43996;SDS011;34318;45.818;15.964;2022-12-29T03:01:17;18.73;;;17.08;;
43996;SDS011;34318;45.818;15.964;2022-12-29T03:06:28;18.95;;;17.25;;
43996;SDS011;34318;45.818;15.964;2022-12-29T03:09:00;19.17;;;17.50;;
43996;SDS011;34318;45.818;15.964;2022-12-29T03:11:32;18.63;;;17.02;;
43996;SDS011;34318;45.818;15.964;2022-12-29T03:14:25;18.95;;;17.20;;
43996;SDS011;34318;45.818;15.964;2022-12-29T03:19:49;19.67;;;17.98;;
43996;SDS011;34318;45.818;15.964;2022-12-29T03:22:19;19.40;;;17.70;;
43996;SDS011;34318;45.818;15.964;2022-12-29T03:25:19;17.75;;;16.05;;
43996;SDS011;34318;45.818;15.964;2022-12-29T03:27:45;17.65;;;16.15;;
43996;SDS011;34318;45.818;15.964;2022-12-29T03:30:13;18.00;;;16.50;;
43996;SDS011;34318;45.818;15.964;2022-12-29T03:32:42;17.67;;;16.15;;
43996;SDS011;34318;45.818;15.964;2022-12-29T03:35:11;18.90;;;17.17;;
43996;SDS011;34318;45.818;15.964;2022-12-29T03:37:41;17.35;;;15.85;;
43996;SDS011;34318;45.818;15.964;2022-12-29T03:40:09;16.88;;;15.32;;
43996;SDS011;34318;45.818;15.964;2022-12-29T03:42:37;17.30;;;15.90;;
43996;SDS011;34318;45.818;15.964;2022-12-29T03:45:05;17.02;;;15.52;;
43996;SDS011;34318;45.818;15.964;2022-12-29T03:47:33;16.88;;;15.38;;
43996;SDS011;34318;45.818;15.964;2022-12-29T03:50:00;17.73;;;16.15;;
43996;SDS011;34318;45.818;15.964;2022-12-29T03:52:27;16.80;;;15.38;;
43996;SDS011;34318;45.818;15.964;2022-12-29T03:54:54;16.67;;;15.27;;
43996;SDS011;34318;45.818;15.964;2022-12-29T03:57:22;16.65;;;15.15;;
43996;SDS011;34318;45.818;15.964;2022-12-29T03:59:49;16.27;;;14.88;;
43996;SDS011;34318;45.818;15.964;2022-12-29T04:02:16;16.92;;;15.27;;
43996;SDS011;34318;45.818;15.964;2022-12-29T04:04:44;15.65;;;14.35;;
43996;SDS011;34318;45.818;15.964;2022-12-29T04:07:11;16.23;;;14.80;;
43996;SDS011;34318;45.818;15.964;2022-12-29T04:09:38;17.20;;;15.57;;
43996;SDS011;34318;45.818;15.964;2022-12-29T04:12:05;16.13;;;14.73;;
43996;SDS011;34318;45.818;15.964;2022-12-29T04:14:32;16.58;;;15.02;;
43996;SDS011;34318;45.818;15.964;2022-12-29T04:16:59;15.40;;;14.10;;
43996;SDS011;34318;45.818;15.964;2022-12-29T04:19:26;15.35;;;13.82;;
43996;SDS011;34318;45.818;15.964;2022-12-29T04:21:54;14.95;;;13.70;;
43996;SDS011;34318;45.818;15.964;2022-12-29T04:24:21;15.30;;;13.90;;
43996;SDS011;34318;45.818;15.964;2022-12-29T04:26:48;15.30;;;13.90;;
43996;SDS011;34318;45.818;15.964;2022-12-29T04:29:15;14.73;;;13.52;;
43996;SDS011;34318;45.818;15.964;2022-12-29T04:31:42;16.40;;;14.50;;
43996;SDS011;34318;45.818;15.964;2022-12-29T04:34:10;13.45;;;12.35;;
43996;SDS011;34318;45.818;15.964;2022-12-29T04:36:37;14.88;;;13.68;;
43996;SDS011;34318;45.818;15.964;2022-12-29T04:39:06;15.38;;;14.07;;
43996;SDS011;34318;45.818;15.964;2022-12-29T04:41:33;13.90;;;12.55;;
43996;SDS011;34318;45.818;15.964;2022-12-29T04:44:00;14.07;;;12.65;;
43996;SDS011;34318;45.818;15.964;2022-12-29T04:46:28;14.07;;;12.88;;
43996;SDS011;34318;45.818;15.964;2022-12-29T04:48:55;14.80;;;13.50;;
43996;SDS011;34318;45.818;15.964;2022-12-29T04:51:22;14.30;;;13.00;;
43996;SDS011;34318;45.818;15.964;2022-12-29T04:53:49;13.55;;;12.35;;
43996;SDS011;34318;45.818;15.964;2022-12-29T04:56:16;13.38;;;12.18;;
43996;SDS011;34318;45.818;15.964;2022-12-29T04:58:44;15.65;;;13.02;;
43996;SDS011;34318;45.818;15.964;2022-12-29T05:01:11;13.82;;;12.63;;
43996;SDS011;34318;45.818;15.964;2022-12-29T05:03:39;13.52;;;12.32;;
43996;SDS011;34318;45.818;15.964;2022-12-29T05:06:06;12.77;;;11.77;;
43996;SDS011;34318;45.818;15.964;2022-12-29T05:08:34;12.88;;;11.77;;
43996;SDS011;34318;45.818;15.964;2022-12-29T05:11:01;14.02;;;12.82;;
43996;SDS011;34318;45.818;15.964;2022-12-29T05:13:28;12.68;;;11.68;;
43996;SDS011;34318;45.818;15.964;2022-12-29T05:15:55;14.35;;;13.00;;
43996;SDS011;34318;45.818;15.964;2022-12-29T05:18:23;12.30;;;11.30;;
43996;SDS011;34318;45.818;15.964;2022-12-29T05:20:50;12.82;;;11.70;;
43996;SDS011;34318;45.818;15.964;2022-12-29T05:23:17;12.73;;;11.70;;
43996;SDS011;34318;45.818;15.964;2022-12-29T05:25:44;12.98;;;11.95;;
43996;SDS011;34318;45.818;15.964;2022-12-29T05:28:12;12.98;;;11.88;;
43996;SDS011;34318;45.818;15.964;2022-12-29T05:30:39;13.45;;;12.25;;
43996;SDS011;34318;45.818;15.964;2022-12-29T05:33:07;12.90;;;11.63;;
43996;SDS011;34318;45.818;15.964;2022-12-29T05:35:37;12.32;;;11.23;;
43996;SDS011;34318;45.818;15.964;2022-12-29T05:38:04;13.27;;;12.07;;
43996;SDS011;34318;45.818;15.964;2022-12-29T05:40:32;12.05;;;10.95;;
43996;SDS011;34318;45.818;15.964;2022-12-29T05:42:59;12.02;;;10.93;;
43996;SDS011;34318;45.818;15.964;2022-12-29T05:45:27;12.13;;;10.95;;
43996;SDS011;34318;45.818;15.964;2022-12-29T05:47:54;12.35;;;11.35;;
43996;SDS011;34318;45.818;15.964;2022-12-29T05:50:21;12.55;;;11.55;;
43996;SDS011;34318;45.818;15.964;2022-12-29T05:52:48;12.57;;;11.48;;
43996;SDS011;34318;45.818;15.964;2022-12-29T05:55:15;11.80;;;10.70;;
43996;SDS011;34318;45.818;15.964;2022-12-29T05:57:43;11.88;;;10.88;;
43996;SDS011;34318;45.818;15.964;2022-12-29T06:00:11;11.80;;;10.70;;
43996;SDS011;34318;45.818;15.964;2022-12-29T06:02:38;11.70;;;10.70;;
43996;SDS011;34318;45.818;15.964;2022-12-29T06:05:05;11.27;;;10.32;;
43996;SDS011;34318;45.818;15.964;2022-12-29T06:07:33;10.77;;;9.88;;
43996;SDS011;34318;45.818;15.964;2022-12-29T06:10:00;11.77;;;10.77;;
43996;SDS011;34318;45.818;15.964;2022-12-29T06:12:27;12.63;;;11.52;;
43996;SDS011;34318;45.818;15.964;2022-12-29T06:14:55;11.70;;;10.50;;
43996;SDS011;34318;45.818;15.964;2022-12-29T06:17:22;12.02;;;10.93;;
43996;SDS011;34318;45.818;15.964;2022-12-29T06:19:49;11.55;;;10.55;;
43996;SDS011;34318;45.818;15.964;2022-12-29T06:22:16;11.35;;;10.35;;
43996;SDS011;34318;45.818;15.964;2022-12-29T06:24:43;10.82;;;9.98;;
43996;SDS011;34318;45.818;15.964;2022-12-29T06:27:10;12.40;;;10.38;;
43996;SDS011;34318;45.818;15.964;2022-12-29T06:29:38;10.52;;;9.52;;
43996;SDS011;34318;45.818;15.964;2022-12-29T06:32:06;10.15;;;9.05;;
43996;SDS011;34318;45.818;15.964;2022-12-29T06:34:34;10.07;;;9.27;;
43996;SDS011;34318;45.818;15.964;2022-12-29T06:37:01;9.85;;;9.02;;
43996;SDS011;34318;45.818;15.964;2022-12-29T06:39:28;10.70;;;9.80;;
43996;SDS011;34318;45.818;15.964;2022-12-29T06:41:56;10.65;;;9.65;;
43996;SDS011;34318;45.818;15.964;2022-12-29T06:44:23;9.90;;;9.05;;
43996;SDS011;34318;45.818;15.964;2022-12-29T06:46:50;9.95;;;9.15;;
43996;SDS011;34318;45.818;15.964;2022-12-29T06:49:17;11.07;;;10.10;;
43996;SDS011;34318;45.818;15.964;2022-12-29T06:51:44;10.07;;;9.20;;
43996;SDS011;34318;45.818;15.964;2022-12-29T06:54:12;10.48;;;9.57;;
43996;SDS011;34318;45.818;15.964;2022-12-29T06:56:39;10.73;;;9.57;;
43996;SDS011;34318;45.818;15.964;2022-12-29T06:59:06;10.95;;;9.95;;
43996;SDS011;34318;45.818;15.964;2022-12-29T07:01:33;9.73;;;8.90;;
43996;SDS011;34318;45.818;15.964;2022-12-29T07:04:02;9.55;;;8.65;;
43996;SDS011;34318;45.818;15.964;2022-12-29T07:06:29;10.30;;;9.35;;
43996;SDS011;34318;45.818;15.964;2022-12-29T07:08:57;9.90;;;9.00;;
43996;SDS011;34318;45.818;15.964;2022-12-29T07:11:24;9.38;;;8.57;;
43996;SDS011;34318;45.818;15.964;2022-12-29T07:13:51;10.07;;;9.18;;
43996;SDS011;34318;45.818;15.964;2022-12-29T07:16:18;10.68;;;9.77;;
43996;SDS011;34318;45.818;15.964;2022-12-29T07:18:46;9.45;;;8.55;;
43996;SDS011;34318;45.818;15.964;2022-12-29T07:21:13;10.35;;;9.45;;
43996;SDS011;34318;45.818;15.964;2022-12-29T07:23:41;10.30;;;9.40;;
43996;SDS011;34318;45.818;15.964;2022-12-29T07:26:09;9.02;;;8.13;;
43996;SDS011;34318;45.818;15.964;2022-12-29T07:28:38;10.30;;;9.40;;
43996;SDS011;34318;45.818;15.964;2022-12-29T07:31:05;8.80;;;8.10;;
43996;SDS011;34318;45.818;15.964;2022-12-29T07:33:32;8.82;;;8.13;;
43996;SDS011;34318;45.818;15.964;2022-12-29T07:36:00;10.10;;;9.07;;
43996;SDS011;34318;45.818;15.964;2022-12-29T07:38:27;9.68;;;8.77;;
43996;SDS011;34318;45.818;15.964;2022-12-29T07:40:57;10.23;;;9.05;;
43996;SDS011;34318;45.818;15.964;2022-12-29T07:43:25;8.68;;;7.88;;
43996;SDS011;34318;45.818;15.964;2022-12-29T07:45:52;8.70;;;7.80;;
43996;SDS011;34318;45.818;15.964;2022-12-29T07:48:19;9.70;;;8.63;;
43996;SDS011;34318;45.818;15.964;2022-12-29T07:50:46;8.38;;;7.63;;
43996;SDS011;34318;45.818;15.964;2022-12-29T07:53:13;8.93;;;7.47;;
43996;SDS011;34318;45.818;15.964;2022-12-29T07:55:44;9.80;;;8.98;;
43996;SDS011;34318;45.818;15.964;2022-12-29T07:58:11;9.13;;;8.32;;
43996;SDS011;34318;45.818;15.964;2022-12-29T08:00:38;9.63;;;8.07;;
43996;SDS011;34318;45.818;15.964;2022-12-29T08:03:05;8.68;;;7.97;;
43996;SDS011;34318;45.818;15.964;2022-12-29T08:05:33;8.60;;;7.85;;
43996;SDS011;34318;45.818;15.964;2022-12-29T08:08:00;8.98;;;7.85;;
43996;SDS011;34318;45.818;15.964;2022-12-29T08:10:27;8.60;;;7.85;;
43996;SDS011;34318;45.818;15.964;2022-12-29T08:12:55;11.65;;;8.45;;
43996;SDS011;34318;45.818;15.964;2022-12-29T08:15:22;9.48;;;8.48;;
43996;SDS011;34318;45.818;15.964;2022-12-29T08:17:57;9.73;;;8.65;;
43996;SDS011;34318;45.818;15.964;2022-12-29T08:20:24;10.88;;;9.48;;
43996;SDS011;34318;45.818;15.964;2022-12-29T08:22:51;10.50;;;9.00;;
43996;SDS011;34318;45.818;15.964;2022-12-29T08:25:19;11.23;;;10.10;;
43996;SDS011;34318;45.818;15.964;2022-12-29T08:27:46;15.38;;;10.00;;
43996;SDS011;34318;45.818;15.964;2022-12-29T08:30:13;10.75;;;9.75;;
43996;SDS011;34318;45.818;15.964;2022-12-29T08:32:40;11.88;;;9.27;;
43996;SDS011;34318;45.818;15.964;2022-12-29T08:35:08;11.25;;;10.25;;
43996;SDS011;34318;45.818;15.964;2022-12-29T08:37:35;13.95;;;10.20;;
43996;SDS011;34318;45.818;15.964;2022-12-29T08:40:02;12.30;;;10.52;;
43996;SDS011;34318;45.818;15.964;2022-12-29T08:42:30;10.68;;;9.68;;
43996;SDS011;34318;45.818;15.964;2022-12-29T08:44:58;10.05;;;9.15;;
43996;SDS011;34318;45.818;15.964;2022-12-29T08:47:25;12.18;;;10.60;;
43996;SDS011;34318;45.818;15.964;2022-12-29T08:49:53;10.75;;;9.55;;
43996;SDS011;34318;45.818;15.964;2022-12-29T08:52:20;13.20;;;11.50;;
43996;SDS011;34318;45.818;15.964;2022-12-29T08:54:47;11.75;;;10.55;;
43996;SDS011;34318;45.818;15.964;2022-12-29T08:57:14;12.88;;;11.68;;
43996;SDS011;34318;45.818;15.964;2022-12-29T08:59:41;13.82;;;12.52;;
43996;SDS011;34318;45.818;15.964;2022-12-29T09:02:12;16.60;;;14.80;;
43996;SDS011;34318;45.818;15.964;2022-12-29T09:04:47;18.55;;;16.60;;
43996;SDS011;34318;45.818;15.964;2022-12-29T09:07:14;17.95;;;16.10;;
43996;SDS011;34318;45.818;15.964;2022-12-29T09:09:41;18.23;;;15.18;;
43996;SDS011;34318;45.818;15.964;2022-12-29T09:12:09;17.48;;;15.77;;
43996;SDS011;34318;45.818;15.964;2022-12-29T09:14:36;16.98;;;15.27;;
43996;SDS011;34318;45.818;15.964;2022-12-29T09:17:03;18.27;;;16.48;;
43996;SDS011;34318;45.818;15.964;2022-12-29T09:19:49;18.27;;;15.30;;
43996;SDS011;34318;45.818;15.964;2022-12-29T09:22:16;17.10;;;13.95;;
43996;SDS011;34318;45.818;15.964;2022-12-29T09:24:43;14.65;;;13.13;;
43996;SDS011;34318;45.818;15.964;2022-12-29T09:27:11;15.30;;;13.80;;
43996;SDS011;34318;45.818;15.964;2022-12-29T09:29:38;13.55;;;12.32;;
43996;SDS011;34318;45.818;15.964;2022-12-29T09:32:05;17.70;;;14.65;;
43996;SDS011;34318;45.818;15.964;2022-12-29T09:34:37;14.55;;;13.05;;
43996;SDS011;34318;45.818;15.964;2022-12-29T09:37:04;14.57;;;13.07;;
43996;SDS011;34318;45.818;15.964;2022-12-29T09:39:32;14.27;;;12.98;;
43996;SDS011;34318;45.818;15.964;2022-12-29T09:44:49;17.98;;;13.80;;
43996;SDS011;34318;45.818;15.964;2022-12-29T09:47:19;20.67;;;15.07;;
43996;SDS011;34318;45.818;15.964;2022-12-29T09:49:52;17.75;;;16.05;;
43996;SDS011;34318;45.818;15.964;2022-12-29T09:52:25;21.02;;;15.57;;
43996;SDS011;34318;45.818;15.964;2022-12-29T09:55:00;16.85;;;15.15;;
43996;SDS011;34318;45.818;15.964;2022-12-29T09:57:49;17.40;;;15.73;;
43996;SDS011;34318;45.818;15.964;2022-12-29T10:00:23;18.05;;;15.63;;
43996;SDS011;34318;45.818;15.964;2022-12-29T10:10:50;22.35;;;15.35;;
43996;SDS011;34318;45.818;15.964;2022-12-29T10:13:33;21.25;;;15.85;;
43996;SDS011;34318;45.818;15.964;2022-12-29T10:24:24;15.52;;;13.90;;
43996;SDS011;34318;45.818;15.964;2022-12-29T10:26:51;14.63;;;13.13;;
43996;SDS011;34318;45.818;15.964;2022-12-29T10:29:24;14.65;;;13.10;;
43996;SDS011;34318;45.818;15.964;2022-12-29T10:34:27;17.23;;;15.30;;
43996;SDS011;34318;45.818;15.964;2022-12-29T10:37:00;18.27;;;16.58;;
43996;SDS011;34318;45.818;15.964;2022-12-29T10:39:33;20.40;;;18.50;;
43996;SDS011;34318;45.818;15.964;2022-12-29T10:42:05;26.25;;;23.75;;
43996;SDS011;34318;45.818;15.964;2022-12-29T10:44:36;28.35;;;25.10;;
43996;SDS011;34318;45.818;15.964;2022-12-29T10:47:06;25.58;;;23.08;;
43996;SDS011;34318;45.818;15.964;2022-12-29T10:49:36;25.23;;;22.60;;
43996;SDS011;34318;45.818;15.964;2022-12-29T10:52:05;21.80;;;19.73;;
43996;SDS011;34318;45.818;15.964;2022-12-29T10:54:36;22.95;;;20.70;;
43996;SDS011;34318;45.818;15.964;2022-12-29T10:57:08;20.05;;;18.10;;
43996;SDS011;34318;45.818;15.964;2022-12-29T10:59:36;22.13;;;19.98;;
43996;SDS011;34318;45.818;15.964;2022-12-29T11:04:49;24.45;;;20.38;;
43996;SDS011;34318;45.818;15.964;2022-12-29T11:07:18;89.85;;;66.93;;
43996;SDS011;34318;45.818;15.964;2022-12-29T11:09:52;106.13;;;91.35;;
43996;SDS011;34318;45.818;15.964;2022-12-29T11:12:27;90.90;;;76.10;;
43996;SDS011;34318;45.818;15.964;2022-12-29T11:15:02;76.90;;;68.13;;
43996;SDS011;34318;45.818;15.964;2022-12-29T11:17:29;80.80;;;65.97;;
43996;SDS011;34318;45.818;15.964;2022-12-29T11:19:57;81.55;;;67.88;;
43996;SDS011;34318;45.818;15.964;2022-12-29T11:22:25;73.00;;;61.22;;
43996;SDS011;34318;45.818;15.964;2022-12-29T11:24:54;75.35;;;60.40;;
43996;SDS011;34318;45.818;15.964;2022-12-29T11:27:22;67.15;;;57.50;;
43996;SDS011;34318;45.818;15.964;2022-12-29T11:29:51;69.07;;;57.42;;
43996;SDS011;34318;45.818;15.964;2022-12-29T11:32:23;68.95;;;55.47;;
43996;SDS011;34318;45.818;15.964;2022-12-29T11:34:54;64.65;;;52.63;;
43996;SDS011;34318;45.818;15.964;2022-12-29T11:37:26;66.88;;;53.72;;
43996;SDS011;34318;45.818;15.964;2022-12-29T11:39:58;62.60;;;50.75;;
43996;SDS011;34318;45.818;15.964;2022-12-29T11:42:35;60.58;;;49.63;;
43996;SDS011;34318;45.818;15.964;2022-12-29T11:45:05;60.35;;;48.35;;
43996;SDS011;34318;45.818;15.964;2022-12-29T11:47:36;54.72;;;47.92;;
43996;SDS011;34318;45.818;15.964;2022-12-29T11:50:04;60.47;;;48.85;;
43996;SDS011;34318;45.818;15.964;2022-12-29T11:52:35;54.05;;;45.85;;
43996;SDS011;34318;45.818;15.964;2022-12-29T11:55:06;59.05;;;45.42;;
43996;SDS011;34318;45.818;15.964;2022-12-29T11:57:34;58.85;;;45.50;;
43996;SDS011;34318;45.818;15.964;2022-12-29T12:00:14;53.17;;;44.28;;
43996;SDS011;34318;45.818;15.964;2022-12-29T12:02:53;52.05;;;43.75;;
43996;SDS011;34318;45.818;15.964;2022-12-29T12:05:37;53.50;;;43.47;;
43996;SDS011;34318;45.818;15.964;2022-12-29T12:08:11;49.45;;;41.67;;
43996;SDS011;34318;45.818;15.964;2022-12-29T12:10:48;54.88;;;44.22;;
43996;SDS011;34318;45.818;15.964;2022-12-29T12:13:22;47.22;;;41.60;;
43996;SDS011;34318;45.818;15.964;2022-12-29T12:15:55;49.40;;;43.17;;
43996;SDS011;34318;45.818;15.964;2022-12-29T12:18:30;49.50;;;41.63;;
43996;SDS011;34318;45.818;15.964;2022-12-29T12:20:59;53.35;;;42.45;;
43996;SDS011;34318;45.818;15.964;2022-12-29T12:23:43;46.80;;;40.55;;
43996;SDS011;34318;45.818;15.964;2022-12-29T12:26:21;48.60;;;41.10;;
43996;SDS011;34318;45.818;15.964;2022-12-29T12:34:03;44.10;;;35.78;;
43996;SDS011;34318;45.818;15.964;2022-12-29T12:36:43;42.10;;;31.85;;
43996;SDS011;34318;45.818;15.964;2022-12-29T12:42:04;36.35;;;26.73;;
43996;SDS011;34318;45.818;15.964;2022-12-29T12:44:44;30.42;;;27.23;;
43996;SDS011;34318;45.818;15.964;2022-12-29T12:57:59;26.27;;;22.92;;
43996;SDS011;34318;45.818;15.964;2022-12-29T13:00:33;31.33;;;25.40;;
43996;SDS011;34318;45.818;15.964;2022-12-29T13:03:11;29.15;;;24.83;;
43996;SDS011;34318;45.818;15.964;2022-12-29T13:08:21;31.55;;;26.00;;
43996;SDS011;34318;45.818;15.964;2022-12-29T13:10:52;34.90;;;24.65;;
43996;SDS011;34318;45.818;15.964;2022-12-29T13:24:01;32.25;;;24.17;;
43996;SDS011;34318;45.818;15.964;2022-12-29T13:26:32;30.38;;;21.83;;
43996;SDS011;34318;45.818;15.964;2022-12-29T13:29:04;30.02;;;23.38;;
43996;SDS011;34318;45.818;15.964;2022-12-29T13:31:53;27.67;;;22.58;;
43996;SDS011;34318;45.818;15.964;2022-12-29T13:34:41;36.35;;;21.88;;
43996;SDS011;34318;45.818;15.964;2022-12-29T13:37:12;32.28;;;23.10;;
43996;SDS011;34318;45.818;15.964;2022-12-29T13:39:42;34.58;;;21.92;;
43996;SDS011;34318;45.818;15.964;2022-12-29T13:42:12;23.20;;;19.60;;
43996;SDS011;34318;45.818;15.964;2022-12-29T13:47:16;23.02;;;17.45;;
43996;SDS011;34318;45.818;15.964;2022-12-29T13:49:46;16.88;;;15.18;;
43996;SDS011;34318;45.818;15.964;2022-12-29T13:57:28;19.77;;;16.15;;
43996;SDS011;34318;45.818;15.964;2022-12-29T14:00:03;25.15;;;16.88;;
43996;SDS011;34318;45.818;15.964;2022-12-29T14:02:36;22.75;;;16.80;;
43996;SDS011;34318;45.818;15.964;2022-12-29T14:07:46;21.10;;;15.07;;
43996;SDS011;34318;45.818;15.964;2022-12-29T14:11:15;20.13;;;15.00;;
43996;SDS011;34318;45.818;15.964;2022-12-29T14:15:38;22.30;;;14.80;;
43996;SDS011;34318;45.818;15.964;2022-12-29T14:20:46;17.35;;;14.93;;
43996;SDS011;34318;45.818;15.964;2022-12-29T14:25:52;19.13;;;14.23;;
43996;SDS011;34318;45.818;15.964;2022-12-29T14:28:25;25.65;;;15.65;;
43996;SDS011;34318;45.818;15.964;2022-12-29T14:30:53;17.40;;;14.13;;
43996;SDS011;34318;45.818;15.964;2022-12-29T14:33:21;17.95;;;14.45;;
43996;SDS011;34318;45.818;15.964;2022-12-29T14:35:50;16.88;;;13.45;;
43996;SDS011;34318;45.818;15.964;2022-12-29T14:38:19;17.90;;;14.38;;
43996;SDS011;34318;45.818;15.964;2022-12-29T14:40:48;18.75;;;13.82;;
43996;SDS011;34318;45.818;15.964;2022-12-29T14:43:20;17.42;;;13.35;;
43996;SDS011;34318;45.818;15.964;2022-12-29T14:45:51;18.45;;;14.20;;
43996;SDS011;34318;45.818;15.964;2022-12-29T14:48:39;18.85;;;13.30;;
43996;SDS011;34318;45.818;15.964;2022-12-29T14:51:20;17.63;;;12.63;;
43996;SDS011;34318;45.818;15.964;2022-12-29T14:53:50;19.98;;;13.07;;
43996;SDS011;34318;45.818;15.964;2022-12-29T14:56:18;18.85;;;12.70;;
43996;SDS011;34318;45.818;15.964;2022-12-29T14:58:47;19.83;;;14.23;;
43996;SDS011;34318;45.818;15.964;2022-12-29T15:03:47;15.40;;;13.13;;
43996;SDS011;34318;45.818;15.964;2022-12-29T15:06:18;15.90;;;12.40;;
43996;SDS011;34318;45.818;15.964;2022-12-29T15:08:55;16.25;;;12.70;;
43996;SDS011;34318;45.818;15.964;2022-12-29T15:11:47;20.48;;;12.15;;
43996;SDS011;34318;45.818;15.964;2022-12-29T15:17:01;14.75;;;12.38;;
43996;SDS011;34318;45.818;15.964;2022-12-29T15:19:28;14.88;;;11.82;;
43996;SDS011;34318;45.818;15.964;2022-12-29T15:21:55;13.13;;;11.75;;
43996;SDS011;34318;45.818;15.964;2022-12-29T15:24:25;14.70;;;12.13;;
43996;SDS011;34318;45.818;15.964;2022-12-29T15:26:53;15.68;;;13.82;;
43996;SDS011;34318;45.818;15.964;2022-12-29T15:29:42;17.15;;;12.40;;
43996;SDS011;34318;45.818;15.964;2022-12-29T15:32:20;21.67;;;13.70;;
43996;SDS011;34318;45.818;15.964;2022-12-29T15:34:49;18.30;;;13.23;;
43996;SDS011;34318;45.818;15.964;2022-12-29T15:37:22;14.55;;;12.82;;
43996;SDS011;34318;45.818;15.964;2022-12-29T15:39:50;18.67;;;13.50;;
43996;SDS011;34318;45.818;15.964;2022-12-29T15:42:21;15.75;;;11.88;;
43996;SDS011;34318;45.818;15.964;2022-12-29T15:44:50;18.08;;;12.43;;
43996;SDS011;34318;45.818;15.964;2022-12-29T15:47:28;19.88;;;13.07;;
43996;SDS011;34318;45.818;15.964;2022-12-29T15:49:59;16.98;;;12.63;;
43996;SDS011;34318;45.818;15.964;2022-12-29T15:52:28;12.70;;;11.27;;
43996;SDS011;34318;45.818;15.964;2022-12-29T15:54:56;19.55;;;12.63;;
43996;SDS011;34318;45.818;15.964;2022-12-29T15:57:26;15.68;;;12.45;;
43996;SDS011;34318;45.818;15.964;2022-12-29T15:59:53;13.68;;;11.88;;
43996;SDS011;34318;45.818;15.964;2022-12-29T16:02:21;17.35;;;12.02;;
43996;SDS011;34318;45.818;15.964;2022-12-29T16:04:49;17.30;;;11.30;;
43996;SDS011;34318;45.818;15.964;2022-12-29T16:07:36;18.10;;;11.32;;
43996;SDS011;34318;45.818;15.964;2022-12-29T16:13:10;16.73;;;11.48;;
43996;SDS011;34318;45.818;15.964;2022-12-29T16:15:46;15.15;;;11.73;;
43996;SDS011;34318;45.818;15.964;2022-12-29T16:18:19;13.15;;;11.23;;
43996;SDS011;34318;45.818;15.964;2022-12-29T16:20:48;17.42;;;12.27;;
43996;SDS011;34318;45.818;15.964;2022-12-29T16:23:18;15.13;;;11.80;;
43996;SDS011;34318;45.818;15.964;2022-12-29T16:25:46;19.02;;;12.23;;